Time;durP1;ratioP1;P1;durP2;ratioP2;P2;SDS_P1;SDS_P2;PMS_P1;PMS_P2;Temp;Humidity;BMP_temperature;BMP_pressure;BME280_temperature;BME280_humidity;BME280_pressure;Samples;Min_cycle;Max_cycle;Signal;HPM_P1;HPM_P2
2021/11/23 00:01:17;;;;;;;17.83;16.53;;;2.60;99.90;;;;;;4994816;28;20819;-79
2021/11/23 00:03:44;;;;;;;18.33;17.00;;;2.50;99.90;;;;;;4994405;28;20460;-77
2021/11/23 00:06:11;;;;;;;18.27;16.93;;;2.50;99.90;;;;;;4976479;28;20458;-77
2021/11/23 00:08:38;;;;;;;18.27;16.97;;;2.50;99.90;;;;;;4977633;28;20534;-77
2021/11/23 00:11:05;;;;;;;18.37;17.07;;;2.50;99.90;;;;;;4992975;28;20959;-79
2021/11/23 00:13:32;;;;;;;17.83;16.53;;;2.40;99.90;;;;;;4992350;28;20521;-77
2021/11/23 00:16:00;;;;;;;18.30;17.00;;;2.40;99.90;;;;;;4978171;28;20433;-78
2021/11/23 00:18:27;;;;;;;18.20;16.90;;;2.40;99.90;;;;;;4976467;28;20477;-77
2021/11/23 00:20:54;;;;;;;17.97;16.77;;;2.40;99.90;;;;;;4992439;28;20484;-77
2021/11/23 00:23:21;;;;;;;17.50;16.30;;;2.30;99.90;;;;;;4998823;28;20535;-77
2021/11/23 00:25:48;;;;;;;18.20;16.87;;;2.30;99.90;;;;;;4992890;28;20516;-77
2021/11/23 00:28:15;;;;;;;17.47;16.20;;;2.20;99.90;;;;;;4979284;28;20440;-77
2021/11/23 00:30:43;;;;;;;17.33;16.13;;;2.20;99.90;;;;;;4983137;28;20498;-77
2021/11/23 00:33:12;;;;;;;18.00;16.70;;;2.10;99.90;;;;;;4976933;28;20457;-77
2021/11/23 00:35:39;;;;;;;18.13;16.67;;;2.10;99.90;;;;;;4992005;28;20452;-78
2021/11/23 00:38:06;;;;;;;18.30;17.00;;;2.10;99.90;;;;;;4992502;28;20562;-77
2021/11/23 00:40:33;;;;;;;19.00;17.40;;;2.00;99.90;;;;;;4992732;28;20456;-77
2021/11/23 00:43:04;;;;;;;17.73;16.43;;;2.00;99.90;;;;;;4976839;28;20485;-77
2021/11/23 00:45:32;;;;;;;17.47;16.27;;;2.00;99.90;;;;;;4977538;28;20442;-77
2021/11/23 00:47:59;;;;;;;19.17;17.77;;;1.90;99.90;;;;;;4979370;28;20504;-77
2021/11/23 00:50:28;;;;;;;18.57;17.17;;;1.90;99.90;;;;;;4977363;28;20462;-77
2021/11/23 00:52:55;;;;;;;18.87;17.47;;;1.90;99.90;;;;;;5001811;28;20496;-78
2021/11/23 00:55:22;;;;;;;18.03;16.73;;;1.80;99.90;;;;;;4976914;28;20445;-77
2021/11/23 00:57:49;;;;;;;18.77;17.40;;;1.80;99.90;;;;;;4976869;28;20469;-77
2021/11/23 01:00:16;;;;;;;18.37;16.97;;;1.70;99.90;;;;;;4976616;28;20437;-77
2021/11/23 01:02:43;;;;;;;18.17;16.87;;;1.70;99.90;;;;;;4976485;28;20461;-77
2021/11/23 01:05:10;;;;;;;19.33;17.83;;;1.70;99.90;;;;;;4975391;28;20446;-78
2021/11/23 01:07:39;;;;;;;18.90;17.30;;;1.60;99.90;;;;;;4991389;28;20467;-77
2021/11/23 01:10:07;;;;;;;19.57;17.97;;;1.70;99.90;;;;;;4977191;28;20448;-77
2021/11/23 01:12:35;;;;;;;19.23;17.73;;;1.70;99.90;;;;;;4976775;28;20513;-78
2021/11/23 01:15:02;;;;;;;19.70;18.23;;;1.70;99.90;;;;;;4976104;28;20441;-77
2021/11/23 01:17:29;;;;;;;18.40;17.10;;;1.60;99.90;;;;;;4968861;28;20451;-77
2021/11/23 01:19:56;;;;;;;19.27;17.77;;;1.60;99.90;;;;;;5008366;28;20455;-77
2021/11/23 01:22:23;;;;;;;19.33;17.83;;;1.60;99.90;;;;;;4989328;28;20486;-77
2021/11/23 01:24:51;;;;;;;19.90;18.30;;;1.60;99.90;;;;;;4980785;28;20450;-77
2021/11/23 01:27:18;;;;;;;19.70;18.20;;;1.60;99.90;;;;;;4976351;28;20441;-77
2021/11/23 01:29:45;;;;;;;19.77;17.87;;;1.50;99.90;;;;;;5002280;28;20467;-77
2021/11/23 01:32:12;;;;;;;19.67;17.97;;;1.50;99.90;;;;;;5007040;28;20540;-77
2021/11/23 01:34:39;;;;;;;20.53;18.90;;;1.50;99.90;;;;;;4996847;28;20515;-77
2021/11/23 01:37:05;;;;;;;19.83;18.23;;;1.50;99.90;;;;;;4974735;28;20473;-77
2021/11/23 01:39:32;;;;;;;19.60;18.20;;;1.40;99.90;;;;;;4976013;28;20545;-77
2021/11/23 01:42:01;;;;;;;20.10;18.50;;;1.40;99.90;;;;;;4984023;28;20453;-77
2021/11/23 01:44:28;;;;;;;20.33;18.73;;;1.40;99.90;;;;;;4995777;28;20537;-77
2021/11/23 01:46:55;;;;;;;19.63;18.03;;;1.30;99.90;;;;;;4975812;28;20439;-77
2021/11/23 01:49:21;;;;;;;20.17;18.63;;;1.30;99.90;;;;;;4990970;28;20453;-77
2021/11/23 01:51:49;;;;;;;19.80;18.30;;;1.30;99.90;;;;;;4976803;28;20458;-77
2021/11/23 01:54:16;;;;;;;20.60;19.10;;;1.20;99.90;;;;;;4982471;28;20449;-77
2021/11/23 01:56:44;;;;;;;21.20;19.50;;;1.20;99.90;;;;;;4990505;28;20452;-77
2021/11/23 01:59:12;;;;;;;21.53;19.73;;;1.10;99.90;;;;;;4993269;28;20481;-77
2021/11/23 02:01:39;;;;;;;19.07;17.67;;;1.10;99.90;;;;;;4976165;28;20533;-77
2021/11/23 02:04:06;;;;;;;20.53;18.93;;;1.00;99.90;;;;;;4984415;28;20888;-78
2021/11/23 02:06:33;;;;;;;20.30;18.70;;;1.00;99.90;;;;;;4974154;28;20456;-77
2021/11/23 02:09:00;;;;;;;21.33;19.70;;;1.00;99.90;;;;;;4991291;28;20462;-78
2021/11/23 02:11:27;;;;;;;22.10;20.30;;;1.00;99.90;;;;;;4974574;28;20952;-77
2021/11/23 02:13:55;;;;;;;20.60;18.87;;;1.00;99.90;;;;;;4982245;28;20446;-77
2021/11/23 02:16:23;;;;;;;21.43;19.73;;;1.00;99.90;;;;;;4973770;28;20454;-77
2021/11/23 02:18:51;;;;;;;21.73;20.03;;;1.00;99.90;;;;;;4975386;28;20478;-77
2021/11/23 02:21:19;;;;;;;21.13;19.53;;;0.90;99.90;;;;;;4999868;28;20480;-77
2021/11/23 02:23:46;;;;;;;22.10;20.20;;;1.00;99.90;;;;;;4981981;28;21074;-77
2021/11/23 02:26:13;;;;;;;20.90;19.20;;;1.00;99.90;;;;;;4974973;28;20449;-77
2021/11/23 02:28:40;;;;;;;21.43;19.63;;;0.90;99.90;;;;;;4974801;28;20481;-77
2021/11/23 02:31:08;;;;;;;22.40;20.60;;;0.90;99.90;;;;;;4975935;28;20440;-78
2021/11/23 02:33:36;;;;;;;21.17;19.57;;;0.80;99.90;;;;;;4982101;28;20525;-77
2021/11/23 02:36:06;;;;;;;21.13;19.27;;;0.70;99.90;;;;;;4973802;28;21000;-77
2021/11/23 02:38:35;;;;;;;22.00;20.20;;;0.70;99.90;;;;;;4989126;28;20848;-77
2021/11/23 02:41:05;;;;;;;21.80;20.00;;;0.70;99.90;;;;;;4975358;28;20441;-77
2021/11/23 02:43:32;;;;;;;21.93;20.13;;;0.70;99.90;;;;;;4985509;28;20474;-77
2021/11/23 02:45:59;;;;;;;22.17;20.27;;;0.70;99.90;;;;;;4973374;28;20511;-78
2021/11/23 02:48:25;;;;;;;23.73;21.73;;;0.70;99.90;;;;;;4975808;28;20452;-77
2021/11/23 02:50:58;;;;;;;22.97;20.73;;;0.70;99.90;;;;;;4988353;28;20448;-77
2021/11/23 02:53:25;;;;;;;22.67;20.77;;;0.70;99.90;;;;;;4974944;28;20467;-77
2021/11/23 02:55:53;;;;;;;21.80;20.00;;;0.70;99.90;;;;;;4988685;28;20516;-77
2021/11/23 02:58:21;;;;;;;21.23;19.53;;;0.70;99.90;;;;;;4990808;28;20450;-77
2021/11/23 03:00:49;;;;;;;21.30;19.57;;;0.60;99.90;;;;;;4974442;28;20434;-78
2021/11/23 03:03:16;;;;;;;22.23;20.33;;;0.60;99.90;;;;;;4974130;28;20455;-77
2021/11/23 03:05:43;;;;;;;21.77;19.97;;;0.60;99.90;;;;;;4974144;28;20508;-77
2021/11/23 03:08:10;;;;;;;21.07;19.33;;;0.50;99.90;;;;;;4972925;28;20912;-77
2021/11/23 03:10:37;;;;;;;21.57;19.67;;;0.50;99.90;;;;;;4989177;28;20453;-77
2021/11/23 03:13:05;;;;;;;21.70;20.00;;;0.50;99.90;;;;;;4988534;28;20477;-77
2021/11/23 03:15:32;;;;;;;21.70;20.00;;;0.50;99.90;;;;;;4973958;28;20442;-77
2021/11/23 03:18:00;;;;;;;23.67;21.60;;;0.50;99.90;;;;;;4974204;28;20450;-77
2021/11/23 03:20:27;;;;;;;23.40;21.17;;;0.40;99.90;;;;;;4981658;28;20481;-77
2021/11/23 03:22:55;;;;;;;23.37;21.47;;;0.40;99.90;;;;;;4989278;28;20452;-77
2021/11/23 03:25:22;;;;;;;22.20;20.30;;;0.50;99.90;;;;;;4972585;28;20462;-77
2021/11/23 03:27:50;;;;;;;23.30;21.30;;;0.50;99.90;;;;;;4991954;28;20504;-77
2021/11/23 03:30:23;;;;;;;23.93;21.80;;;0.50;99.90;;;;;;5004585;28;20458;-77
2021/11/23 03:32:53;;;;;;;23.00;20.77;;;0.50;99.90;;;;;;4990174;28;20912;-77
2021/11/23 03:35:20;;;;;;;22.43;20.63;;;0.40;99.90;;;;;;4978753;28;20521;-78
2021/11/23 03:37:48;;;;;;;22.23;20.37;;;0.40;99.90;;;;;;4997417;28;20452;-77
2021/11/23 03:40:15;;;;;;;23.43;21.43;;;0.40;99.90;;;;;;4978877;28;20974;-77
2021/11/23 03:42:42;;;;;;;23.30;21.23;;;0.40;99.90;;;;;;4998972;28;20846;-77
2021/11/23 03:45:11;;;;;;;23.33;21.43;;;0.40;99.90;;;;;;4981231;28;20457;-77
2021/11/23 03:47:40;;;;;;;24.80;22.50;;;0.40;99.90;;;;;;4973474;28;20811;-76
2021/11/23 03:50:11;;;;;;;23.73;21.47;;;0.40;99.90;;;;;;5004410;28;20547;-77
2021/11/23 03:52:38;;;;;;;24.07;22.07;;;0.40;99.90;;;;;;5001875;28;21040;-76
2021/11/23 03:55:08;;;;;;;22.87;20.80;;;0.40;99.90;;;;;;4976570;28;20441;-76
2021/11/23 03:57:35;;;;;;;22.53;20.60;;;0.40;99.90;;;;;;4977749;28;20850;-77
2021/11/23 04:00:05;;;;;;;23.53;21.53;;;0.30;99.90;;;;;;4977953;28;20512;-77
2021/11/23 04:02:40;;;;;;;22.10;20.30;;;0.30;99.90;;;;;;4976124;28;20512;-77
2021/11/23 04:05:08;;;;;;;23.73;21.63;;;0.30;99.90;;;;;;4976911;28;20444;-76
2021/11/23 04:07:39;;;;;;;23.77;21.77;;;0.30;99.90;;;;;;4977281;28;20449;-76
2021/11/23 04:10:07;;;;;;;24.23;22.23;;;0.30;99.90;;;;;;4977587;28;20447;-77
2021/11/23 04:12:34;;;;;;;23.67;21.67;;;0.30;99.90;;;;;;4978153;28;20519;-76
2021/11/23 04:15:01;;;;;;;23.77;21.73;;;0.20;99.90;;;;;;5006282;28;20862;-80
2021/11/23 04:17:27;;;;;;;24.87;22.47;;;0.10;99.90;;;;;;4987888;28;20449;-77
2021/11/23 04:19:55;;;;;;;25.27;22.87;;;0.20;99.90;;;;;;4995831;28;20530;-77
2021/11/23 04:22:22;;;;;;;24.23;21.97;;;0.20;99.90;;;;;;4983159;28;20532;-77
2021/11/23 04:24:49;;;;;;;23.73;21.80;;;0.20;99.90;;;;;;4989831;28;20900;-77
2021/11/23 04:27:16;;;;;;;25.30;22.93;;;0.20;99.90;;;;;;4976201;28;20500;-77
2021/11/23 04:29:43;;;;;;;25.93;23.70;;;0.20;99.90;;;;;;4977024;28;20496;-78
2021/11/23 04:32:09;;;;;;;24.47;22.13;;;0.20;99.90;;;;;;4987349;28;20460;-77
2021/11/23 04:34:36;;;;;;;23.77;21.60;;;0.20;99.90;;;;;;4997341;28;20454;-77
2021/11/23 04:37:05;;;;;;;26.03;23.67;;;0.10;99.90;;;;;;4978500;28;20495;-77
2021/11/23 04:39:32;;;;;;;23.93;21.73;;;0.10;99.90;;;;;;4998148;28;20998;-77
2021/11/23 04:41:58;;;;;;;24.30;22.10;;;0.10;99.90;;;;;;4974364;28;21713;-77
2021/11/23 04:44:25;;;;;;;24.57;22.47;;;0.10;99.90;;;;;;4979483;28;20444;-77
2021/11/23 04:46:52;;;;;;;24.80;22.47;;;0.10;99.90;;;;;;4975436;28;20457;-77
2021/11/23 04:49:22;;;;;;;25.13;22.73;;;0.00;99.90;;;;;;4991454;28;20508;-77
2021/11/23 04:51:49;;;;;;;24.80;22.70;;;0.00;99.90;;;;;;4972041;28;20469;-77
2021/11/23 04:54:17;;;;;;;25.00;22.70;;;0.00;99.90;;;;;;4974056;28;20446;-77
2021/11/23 04:56:44;;;;;;;24.53;22.37;;;0.00;99.90;;;;;;4989469;28;20488;-77
2021/11/23 04:59:11;;;;;;;24.77;22.60;;;-0.10;99.90;;;;;;4974570;28;20469;-77
2021/11/23 05:01:38;;;;;;;25.43;23.03;;;-0.10;99.90;;;;;;4990688;28;21051;-78
2021/11/23 05:04:05;;;;;;;25.50;23.10;;;0.00;99.90;;;;;;4976525;28;20454;-76
2021/11/23 05:06:32;;;;;;;25.20;23.00;;;0.00;99.90;;;;;;4975470;28;20446;-76
2021/11/23 05:09:00;;;;;;;24.63;22.53;;;0.00;99.90;;;;;;4990695;28;20473;-78
2021/11/23 05:11:28;;;;;;;25.30;23.10;;;0.00;99.90;;;;;;4976265;28;20426;-77
2021/11/23 05:13:55;;;;;;;27.03;24.63;;;-0.10;99.90;;;;;;4999690;28;20464;-77
2021/11/23 05:16:22;;;;;;;25.37;23.07;;;0.00;99.90;;;;;;4981238;28;20445;-77
2021/11/23 05:18:49;;;;;;;25.70;23.40;;;0.00;99.90;;;;;;4990767;28;20837;-76
2021/11/23 05:21:15;;;;;;;25.17;22.87;;;0.00;99.90;;;;;;4976102;28;20449;-77
2021/11/23 05:23:42;;;;;;;24.67;22.30;;;-0.10;99.90;;;;;;4975884;28;20524;-76
2021/11/23 05:26:09;;;;;;;24.43;22.33;;;-0.20;99.90;;;;;;4976268;28;20512;-76
2021/11/23 05:28:37;;;;;;;25.17;22.87;;;-0.30;99.90;;;;;;4989522;28;20492;-77
2021/11/23 05:31:04;;;;;;;25.07;23.03;;;-0.30;99.90;;;;;;4975814;28;20433;-80
2021/11/23 05:33:31;;;;;;;25.60;23.40;;;-0.30;99.90;;;;;;4987067;28;20495;-77
2021/11/23 05:35:57;;;;;;;25.80;23.50;;;-0.30;99.90;;;;;;4974899;28;20481;-77
2021/11/23 05:38:24;;;;;;;25.17;23.00;;;-0.30;99.90;;;;;;4973448;28;20512;-77
2021/11/23 05:40:51;;;;;;;24.90;22.80;;;-0.30;99.90;;;;;;4990024;28;20862;-77
2021/11/23 05:43:18;;;;;;;25.70;23.40;;;-0.30;99.90;;;;;;4975817;28;20453;-77
2021/11/23 05:45:46;;;;;;;25.87;23.60;;;-0.30;99.90;;;;;;4991486;28;20449;-76
2021/11/23 05:48:13;;;;;;;24.70;22.60;;;-0.40;99.90;;;;;;4974603;28;20500;-76
2021/11/23 05:50:40;;;;;;;25.97;23.77;;;-0.40;99.90;;;;;;4974635;28;20437;-76
2021/11/23 05:53:08;;;;;;;26.13;23.53;;;-0.40;99.90;;;;;;4989234;28;20638;-77
2021/11/23 05:55:35;;;;;;;24.70;22.50;;;-0.40;99.90;;;;;;4988525;28;20512;-78
2021/11/23 05:58:03;;;;;;;26.03;23.73;;;-0.40;99.90;;;;;;4984689;28;20941;-77
2021/11/23 06:00:31;;;;;;;26.43;24.07;;;-0.30;99.90;;;;;;4999584;28;20472;-78
2021/11/23 06:02:59;;;;;;;26.67;23.93;;;-0.30;99.90;;;;;;4984172;28;20469;-78
2021/11/23 06:05:26;;;;;;;26.70;24.27;;;-0.30;99.90;;;;;;5002857;28;20866;-78
2021/11/23 06:07:53;;;;;;;25.73;23.53;;;-0.30;99.90;;;;;;4986027;28;20519;-78
2021/11/23 06:10:20;;;;;;;26.77;24.47;;;-0.30;99.90;;;;;;4987401;28;20496;-77
2021/11/23 06:12:49;;;;;;;25.43;23.23;;;-0.40;99.90;;;;;;4989510;28;20461;-77
2021/11/23 06:15:17;;;;;;;26.70;24.30;;;-0.40;99.90;;;;;;4989972;28;20458;-77
2021/11/23 06:17:44;;;;;;;25.23;23.00;;;-0.40;99.90;;;;;;5008409;28;20799;-78
2021/11/23 06:20:12;;;;;;;26.17;23.80;;;-0.50;99.90;;;;;;5008455;28;20480;-77
2021/11/23 06:22:40;;;;;;;27.17;24.67;;;-0.50;99.90;;;;;;4991546;28;20460;-77
2021/11/23 06:25:08;;;;;;;25.70;23.50;;;-0.50;99.90;;;;;;4988482;28;20457;-77
2021/11/23 06:27:37;;;;;;;26.30;23.90;;;-0.50;99.90;;;;;;5007532;28;20507;-77
2021/11/23 06:30:06;;;;;;;25.93;23.80;;;-0.40;99.90;;;;;;4988608;28;20448;-78
2021/11/23 06:32:33;;;;;;;27.77;25.37;;;-0.50;99.90;;;;;;4987004;28;20527;-77
2021/11/23 06:34:59;;;;;;;27.13;24.83;;;-0.50;99.90;;;;;;4987133;28;20541;-77
2021/11/23 06:37:28;;;;;;;27.10;24.63;;;-0.50;99.90;;;;;;5001311;28;20456;-77
2021/11/23 06:39:54;;;;;;;27.70;25.20;;;-0.50;99.90;;;;;;4987367;28;20469;-77
2021/11/23 06:42:21;;;;;;;27.30;24.90;;;-0.50;99.90;;;;;;4992343;28;20472;-77
2021/11/23 06:44:48;;;;;;;26.83;24.53;;;-0.60;99.90;;;;;;4987995;28;20527;-77
2021/11/23 06:47:15;;;;;;;26.97;24.57;;;-0.50;99.90;;;;;;4991202;28;20925;-77
2021/11/23 06:49:42;;;;;;;27.50;25.00;;;-0.50;99.90;;;;;;4990372;28;20515;-77
2021/11/23 06:52:09;;;;;;;26.43;24.13;;;-0.60;99.90;;;;;;4987861;28;20457;-77
2021/11/23 06:54:38;;;;;;;26.03;23.83;;;-0.60;99.90;;;;;;4988502;28;20441;-77
2021/11/23 06:57:05;;;;;;;26.93;24.53;;;-0.60;99.90;;;;;;4988105;28;20544;-77
2021/11/23 06:59:32;;;;;;;27.17;24.53;;;-0.60;99.90;;;;;;4985472;28;20456;-77
2021/11/23 07:01:59;;;;;;;25.77;23.50;;;-0.60;99.90;;;;;;4998662;28;21023;-77
2021/11/23 07:04:26;;;;;;;27.37;24.77;;;-0.60;99.90;;;;;;4985316;28;20672;-77
2021/11/23 07:06:53;;;;;;;27.73;25.13;;;-0.50;99.90;;;;;;4992161;28;20436;-77
2021/11/23 07:09:20;;;;;;;26.13;23.73;;;-0.50;99.90;;;;;;5003899;28;20516;-77
2021/11/23 07:11:48;;;;;;;28.17;25.43;;;-0.40;99.90;;;;;;4990593;28;20551;-78
2021/11/23 07:14:16;;;;;;;28.27;25.53;;;-0.40;99.90;;;;;;4989565;28;20453;-77
2021/11/23 07:16:43;;;;;;;26.87;24.53;;;-0.30;99.90;;;;;;4987325;28;20444;-77
2021/11/23 07:19:09;;;;;;;27.57;24.87;;;-0.30;99.90;;;;;;4987148;28;20456;-77
2021/11/23 07:21:36;;;;;;;26.73;24.07;;;-0.20;99.90;;;;;;5002001;28;20526;-77
2021/11/23 07:24:04;;;;;;;27.43;24.83;;;-0.20;99.90;;;;;;4985265;28;20832;-77
2021/11/23 07:26:31;;;;;;;26.83;24.43;;;-0.10;99.90;;;;;;4990127;28;20441;-77
2021/11/23 07:29:00;;;;;;;26.50;24.20;;;0.00;99.90;;;;;;4987365;28;20448;-77
2021/11/23 07:31:27;;;;;;;27.17;24.50;;;0.10;99.90;;;;;;5000168;28;20469;-77
2021/11/23 07:33:54;;;;;;;25.23;23.03;;;0.10;99.90;;;;;;4988525;28;20433;-78
2021/11/23 07:36:22;;;;;;;26.93;24.47;;;0.20;99.90;;;;;;4985418;28;20460;-77
2021/11/23 07:38:50;;;;;;;25.93;23.63;;;0.40;99.90;;;;;;4991664;28;20453;-77
2021/11/23 07:41:17;;;;;;;26.47;24.17;;;0.60;99.90;;;;;;4989053;28;20532;-77
2021/11/23 07:43:44;;;;;;;26.73;24.43;;;0.70;99.90;;;;;;5007411;28;20511;-77
2021/11/23 07:46:13;;;;;;;25.10;22.90;;;0.60;99.90;;;;;;4991615;28;20444;-77
2021/11/23 07:48:40;;;;;;;23.80;21.87;;;0.60;99.90;;;;;;5007357;28;20461;-77
2021/11/23 07:51:07;;;;;;;26.03;23.67;;;0.60;99.90;;;;;;4992297;28;20426;-77
2021/11/23 07:53:33;;;;;;;24.37;22.43;;;0.50;99.90;;;;;;5007039;28;20527;-78
2021/11/23 07:56:00;;;;;;;23.67;21.77;;;0.50;99.90;;;;;;4992790;28;20493;-77
2021/11/23 07:58:27;;;;;;;25.27;23.07;;;0.60;99.90;;;;;;5007481;28;20491;-77
2021/11/23 08:00:54;;;;;;;25.73;23.43;;;0.60;99.90;;;;;;5007306;28;20878;-77
2021/11/23 08:03:23;;;;;;;25.53;23.33;;;0.60;99.90;;;;;;4987874;28;20452;-77
2021/11/23 08:05:50;;;;;;;25.20;22.90;;;0.80;99.90;;;;;;4988241;28;20434;-77
2021/11/23 08:08:17;;;;;;;25.20;23.00;;;0.80;99.90;;;;;;4988122;28;20449;-77
2021/11/23 08:10:44;;;;;;;24.83;22.63;;;1.10;99.90;;;;;;5004309;28;20445;-77
2021/11/23 08:13:10;;;;;;;24.57;22.50;;;1.30;99.90;;;;;;4989708;28;20516;-77
2021/11/23 08:15:38;;;;;;;24.77;22.57;;;1.50;99.90;;;;;;4989759;28;20452;-77
2021/11/23 08:18:06;;;;;;;24.17;22.20;;;1.80;99.90;;;;;;4987688;28;20455;-78
2021/11/23 08:20:34;;;;;;;23.67;21.63;;;2.10;99.90;;;;;;4987949;28;20487;-77
2021/11/23 08:23:02;;;;;;;24.03;22.13;;;2.30;99.90;;;;;;4994593;28;20456;-78
2021/11/23 08:25:29;;;;;;;22.73;20.83;;;2.50;99.90;;;;;;4986232;28;20454;-78
2021/11/23 08:27:56;;;;;;;22.57;20.77;;;2.70;99.90;;;;;;4990936;28;20487;-78
2021/11/23 08:30:23;;;;;;;22.83;21.10;;;2.80;99.90;;;;;;4991191;28;20440;-78
2021/11/23 08:32:50;;;;;;;22.40;20.37;;;2.90;99.90;;;;;;4988727;28;20472;-78
2021/11/23 08:35:19;;;;;;;21.67;19.90;;;2.90;99.90;;;;;;4989019;28;21019;-78
2021/11/23 08:37:47;;;;;;;21.37;19.77;;;2.90;99.90;;;;;;4987895;28;20545;-78
2021/11/23 08:40:13;;;;;;;22.13;20.27;;;3.00;99.90;;;;;;5003795;28;20544;-78
2021/11/23 08:42:41;;;;;;;22.10;20.30;;;3.00;99.90;;;;;;5006108;28;20465;-78
2021/11/23 08:45:10;;;;;;;20.57;19.10;;;2.70;99.90;;;;;;4990338;28;20456;-77
2021/11/23 08:47:37;;;;;;;21.97;20.30;;;2.60;99.90;;;;;;4995406;28;20539;-78
2021/11/23 08:50:05;;;;;;;22.57;20.67;;;2.60;99.90;;;;;;4992113;28;20193;-77
2021/11/23 08:52:33;;;;;;;21.27;19.50;;;2.60;99.90;;;;;;4989676;28;20535;-77
2021/11/23 08:55:01;;;;;;;21.40;19.70;;;2.50;99.90;;;;;;4990903;28;20209;-78
2021/11/23 08:57:28;;;;;;;21.33;19.63;;;2.30;99.90;;;;;;4989771;28;20468;-78
2021/11/23 09:00:09;;;;;;;21.77;20.00;;;2.20;99.90;;;;;;4990603;28;20198;-78
2021/11/23 09:02:36;;;;;;;21.73;19.93;;;2.10;99.90;;;;;;5002516;28;20215;-77
2021/11/23 09:05:03;;;;;;;22.00;20.20;;;2.00;99.90;;;;;;4995256;28;20501;-77
2021/11/23 09:07:30;;;;;;;22.13;20.43;;;2.00;99.90;;;;;;4991000;28;20807;-77
2021/11/23 09:09:57;;;;;;;21.00;19.30;;;2.10;99.90;;;;;;5006446;28;20464;-78
2021/11/23 09:12:25;;;;;;;21.63;19.87;;;2.10;99.90;;;;;;5004943;28;21063;-78
2021/11/23 09:14:52;;;;;;;21.97;20.17;;;2.00;99.90;;;;;;5005741;28;20461;-78
2021/11/23 09:17:19;;;;;;;21.07;19.43;;;1.90;99.90;;;;;;4991887;28;20814;-78
2021/11/23 09:19:45;;;;;;;21.77;20.07;;;1.90;99.90;;;;;;4989038;28;20540;-78
2021/11/23 09:22:12;;;;;;;23.03;21.23;;;1.80;99.90;;;;;;4987203;28;20487;-77
2021/11/23 09:24:39;;;;;;;21.23;19.63;;;2.00;99.90;;;;;;5018621;28;20444;-77
2021/11/23 09:27:06;;;;;;;21.47;19.77;;;1.90;99.90;;;;;;4985904;28;20492;-78
2021/11/23 09:29:34;;;;;;;23.50;21.50;;;2.00;99.90;;;;;;5006121;28;20460;-78
2021/11/23 09:32:02;;;;;;;22.37;20.67;;;2.10;99.90;;;;;;4989707;28;20501;-77
2021/11/23 09:34:28;;;;;;;23.70;21.60;;;2.00;99.90;;;;;;4986295;28;20432;-77
2021/11/23 09:36:55;;;;;;;22.90;21.10;;;2.00;99.90;;;;;;4990466;28;20445;-78
2021/11/23 09:39:23;;;;;;;22.23;20.43;;;2.10;99.90;;;;;;4990092;28;20599;-77
2021/11/23 09:41:49;;;;;;;23.00;21.03;;;2.10;99.90;;;;;;5004426;28;20552;-77
2021/11/23 09:44:16;;;;;;;22.93;21.03;;;2.00;99.90;;;;;;4987957;28;20491;-77
2021/11/23 09:46:45;;;;;;;23.17;21.20;;;2.00;99.90;;;;;;5004869;28;20466;-78
2021/11/23 09:49:12;;;;;;;23.17;21.27;;;2.10;99.90;;;;;;4989935;28;20510;-77
2021/11/23 09:51:40;;;;;;;22.43;20.63;;;2.10;99.90;;;;;;4987476;28;20928;-77
2021/11/23 09:54:09;;;;;;;23.83;21.50;;;2.00;99.90;;;;;;4987966;28;20536;-78
2021/11/23 09:56:37;;;;;;;22.97;21.17;;;2.10;99.90;;;;;;4989786;28;20498;-78
2021/11/23 09:59:05;;;;;;;23.33;21.43;;;2.20;99.90;;;;;;4987851;28;20503;-77
2021/11/23 10:01:47;;;;;;;23.10;21.20;;;2.40;99.90;;;;;;4985747;28;20466;-78
2021/11/23 10:04:15;;;;;;;21.40;19.70;;;2.60;99.90;;;;;;4986267;28;20445;-78
2021/11/23 10:06:55;;;;;;;21.83;20.13;;;2.60;99.90;;;;;;5004739;28;20969;-78
2021/11/23 10:09:30;;;;;;;23.10;21.20;;;2.60;99.90;;;;;;4989775;28;20471;-77
2021/11/23 10:12:16;;;;;;;22.40;20.47;;;2.70;99.90;;;;;;4988194;28;20475;-77
2021/11/23 10:15:11;;;;;;;23.03;21.17;;;2.60;99.90;;;;;;4981677;28;20440;-78
2021/11/23 10:17:40;;;;;;;22.90;21.00;;;2.60;99.90;;;;;;4986518;28;20784;-77
2021/11/23 10:20:25;;;;;;;22.93;21.13;;;2.50;99.90;;;;;;4989115;28;20460;-78
2021/11/23 10:22:52;;;;;;;22.03;20.37;;;2.50;99.90;;;;;;5004186;28;20464;-77
2021/11/23 10:25:19;;;;;;;23.57;21.57;;;2.60;99.90;;;;;;4988408;28;20499;-78
2021/11/23 10:27:47;;;;;;;23.83;21.93;;;2.70;99.90;;;;;;4987312;28;20439;-78
2021/11/23 10:30:14;;;;;;;23.00;21.00;;;2.70;99.90;;;;;;4986634;28;20451;-78
2021/11/23 10:32:43;;;;;;;23.93;21.93;;;2.70;99.90;;;;;;4989198;28;20460;-78
2021/11/23 10:35:16;;;;;;;23.93;21.93;;;2.70;99.90;;;;;;4989119;28;20461;-78
2021/11/23 10:37:44;;;;;;;23.30;21.07;;;2.70;99.90;;;;;;4980830;28;20448;-78
2021/11/23 10:40:13;;;;;;;24.40;22.20;;;2.70;99.90;;;;;;4983761;28;20460;-77
2021/11/23 10:42:41;;;;;;;23.47;21.40;;;2.70;99.90;;;;;;4987979;28;20895;-78
2021/11/23 10:45:10;;;;;;;22.97;21.07;;;2.80;99.90;;;;;;4988167;28;20436;-78
2021/11/23 10:47:38;;;;;;;22.83;20.83;;;2.90;99.90;;;;;;4987759;28;20443;-79
2021/11/23 10:50:06;;;;;;;24.40;22.17;;;2.90;99.90;;;;;;4986436;28;20448;-78
2021/11/23 10:52:38;;;;;;;23.80;21.77;;;2.90;99.90;;;;;;4987893;28;20476;-78
2021/11/23 10:55:09;;;;;;;22.63;20.87;;;3.00;99.90;;;;;;4988554;28;20942;-78
2021/11/23 10:57:41;;;;;;;23.33;21.30;;;3.00;99.90;;;;;;4985845;28;20941;-77
2021/11/23 11:00:10;;;;;;;23.80;21.60;;;3.10;99.90;;;;;;4984856;28;20882;-78
2021/11/23 11:02:39;;;;;;;23.53;21.63;;;3.10;99.90;;;;;;4983507;28;20515;-78
2021/11/23 11:05:09;;;;;;;24.03;22.03;;;3.20;99.90;;;;;;4983188;28;20468;-78
2021/11/23 11:07:38;;;;;;;22.77;20.97;;;3.30;99.90;;;;;;4990501;28;20940;-78
2021/11/23 11:10:08;;;;;;;22.97;20.83;;;3.20;99.90;;;;;;5021124;28;20513;-78
2021/11/23 11:12:36;;;;;;;23.47;21.50;;;3.20;99.90;;;;;;4986656;28;20977;-78
2021/11/23 11:15:05;;;;;;;22.57;20.77;;;3.30;99.90;;;;;;4985028;28;20452;-78
2021/11/23 11:17:36;;;;;;;21.57;19.97;;;3.40;99.90;;;;;;4996665;28;20479;-78
2021/11/23 11:20:04;;;;;;;21.20;19.50;;;3.50;99.90;;;;;;4981218;28;20448;-77
2021/11/23 11:22:32;;;;;;;21.87;20.07;;;3.60;99.90;;;;;;4987083;28;20485;-78
2021/11/23 11:25:11;;;;;;;21.77;20.07;;;3.60;99.90;;;;;;4985579;28;20237;-78
2021/11/23 11:27:45;;;;;;;21.73;20.13;;;3.70;99.90;;;;;;4999580;28;21000;-77
2021/11/23 11:30:25;;;;;;;22.87;20.87;;;3.70;99.90;;;;;;4989197;28;20453;-78
2021/11/23 11:32:53;;;;;;;22.33;20.53;;;3.70;99.90;;;;;;4981514;28;20315;-78
2021/11/23 11:35:22;;;;;;;21.80;20.20;;;3.70;99.90;;;;;;4987186;28;20501;-77
2021/11/23 11:37:49;;;;;;;22.60;20.80;;;3.80;99.90;;;;;;4985961;28;21009;-77
2021/11/23 11:40:25;;;;;;;22.13;20.43;;;3.90;99.90;;;;;;4985969;28;20446;-78
2021/11/23 11:43:00;;;;;;;21.40;19.70;;;3.90;99.90;;;;;;4987019;28;20534;-78
2021/11/23 11:45:39;;;;;;;20.57;18.97;;;3.90;99.90;;;;;;4989416;28;20554;-78
2021/11/23 11:48:26;;;;;;;20.43;18.63;;;4.00;99.90;;;;;;4987463;28;20460;-78
2021/11/23 11:51:00;;;;;;;19.80;18.27;;;4.00;99.90;;;;;;4992223;28;20247;-77
2021/11/23 11:53:32;;;;;;;20.37;18.77;;;4.10;99.90;;;;;;4994544;28;20456;-78
2021/11/23 11:56:00;;;;;;;20.40;18.70;;;4.20;99.90;;;;;;4988354;28;20197;-78
2021/11/23 11:58:51;;;;;;;19.43;17.83;;;4.30;99.90;;;;;;4990964;28;20194;-78
2021/11/23 12:01:30;;;;;;;20.17;18.47;;;4.30;99.90;;;;;;4988494;28;20341;-78
2021/11/23 12:04:13;;;;;;;19.73;17.90;;;4.30;99.90;;;;;;4988439;28;20562;-78
2021/11/23 12:07:06;;;;;;;18.77;17.30;;;4.30;99.90;;;;;;4990410;28;20208;-78
2021/11/23 12:09:35;;;;;;;19.50;17.90;;;4.30;99.90;;;;;;4979782;28;20224;-78
2021/11/23 12:12:33;;;;;;;19.67;17.87;;;4.40;99.90;;;;;;4991967;28;20217;-77
2021/11/23 12:15:09;;;;;;;20.07;18.57;;;4.40;99.90;;;;;;4982701;28;20193;-78
2021/11/23 12:17:49;;;;;;;19.17;17.57;;;4.50;99.90;;;;;;4976623;28;20233;-77
2021/11/23 12:20:31;;;;;;;19.33;17.83;;;4.50;99.90;;;;;;4990200;28;20229;-78
2021/11/23 12:23:17;;;;;;;18.93;17.43;;;4.60;99.90;;;;;;4985473;28;20589;-78
2021/11/23 12:25:56;;;;;;;19.37;17.87;;;4.70;99.90;;;;;;5011502;28;20475;-78
2021/11/23 12:28:26;;;;;;;19.07;17.57;;;4.70;99.90;;;;;;4987816;28;20209;-78
2021/11/23 12:30:53;;;;;;;19.10;17.47;;;4.70;99.90;;;;;;4990865;28;20259;-77
2021/11/23 12:33:21;;;;;;;19.00;17.50;;;4.80;99.90;;;;;;4987298;28;20217;-78
2021/11/23 12:35:49;;;;;;;18.50;17.03;;;4.90;99.90;;;;;;5005649;28;20252;-78
2021/11/23 12:38:27;;;;;;;11.67;10.47;;;4.90;99.90;;;;;;4990092;28;20285;-78
2021/11/23 12:40:56;;;;;;;10.97;9.73;;;4.90;99.90;;;;;;4993687;28;20205;-78
2021/11/23 12:43:35;;;;;;;13.93;12.73;;;4.90;99.90;;;;;;4989723;28;20237;-78